Aurora, Utah
Current Conditions -  °F | °C
As of 6:35 PM on Friday 24 Oct 2014 (Local Time) from KDTA Reporting Station
Clear Clear  
Wind Chill: 71°   Ceiling: Unl
Heat Index: 71°   Visibility: 10mi
Dew Point: 27°   Wind: 6mph
Humidity: 19%   Direction: 180°S
Pressure: 30.11"   Gusts: NA
Location:  38.92°N, 111.93°W
Report Text: KDTA 250035Z AUTO 18005KT 10SM CLR 22/M03 A3011 RMK AO1 T02181030
Loading
Personal Weather Stations






























Interactive Weather Map New forecast layout! Learn more

10-Day Weather Forecast

Advertisements
Track Severe Weather on mobile